createdAt,value
2022-09-15T00:01:20.558Z,52.13
2022-09-15T00:03:48.923Z,52.41
2022-09-15T00:06:18.158Z,52.00
2022-09-15T00:08:59.444Z,52.27
2022-09-15T00:11:31.801Z,52.28
2022-09-15T00:14:02.547Z,52.37
2022-09-15T00:16:32.953Z,52.22
2022-09-15T00:19:01.785Z,51.90
2022-09-15T00:21:32.491Z,51.73
2022-09-15T00:24:01.826Z,51.06
2022-09-15T00:26:36.179Z,50.93
2022-09-15T00:29:05.544Z,50.60
2022-09-15T00:31:34.583Z,50.61
2022-09-15T00:34:04.197Z,50.35
2022-09-15T00:36:32.741Z,49.79
2022-09-15T00:39:01.348Z,49.92
2022-09-15T00:41:29.615Z,50.39
2022-09-15T00:44:01.227Z,49.96
2022-09-15T00:46:31.744Z,49.93
2022-09-15T00:49:03.143Z,49.88
2022-09-15T00:51:36.659Z,50.07
2022-09-15T00:54:09.518Z,49.96
2022-09-15T00:56:41.360Z,49.90
2022-09-15T00:59:15.409Z,49.82
2022-09-15T01:01:45.689Z,49.70
2022-09-15T01:04:15.895Z,49.71
2022-09-15T01:06:48.666Z,49.55
2022-09-15T01:09:19.166Z,49.53
2022-09-15T01:11:49.610Z,49.27
2022-09-15T01:14:19.166Z,49.51
2022-09-15T01:16:58.110Z,49.25
2022-09-15T01:20:08.168Z,48.90
2022-09-15T01:22:43.957Z,48.65
2022-09-15T01:25:27.352Z,48.06
2022-09-15T01:28:36.121Z,48.07
2022-09-15T01:31:10.795Z,48.06
2022-09-15T01:33:46.244Z,48.42
2022-09-15T01:36:20.343Z,48.21
2022-09-15T01:38:55.828Z,48.23
2022-09-15T01:41:29.372Z,48.46
2022-09-15T01:44:03.839Z,48.42
2022-09-15T01:46:38.903Z,48.33
2022-09-15T01:49:10.170Z,48.60
2022-09-15T01:51:40.325Z,48.16
2022-09-15T01:54:10.111Z,48.04
2022-09-15T01:56:38.916Z,48.20
2022-09-15T01:59:07.353Z,47.61
2022-09-15T02:01:44.945Z,47.36
2022-09-15T02:04:19.388Z,47.36
2022-09-15T02:06:54.434Z,47.38
2022-09-15T02:09:26.269Z,46.84
2022-09-15T02:12:02.633Z,46.41
2022-09-15T02:14:48.114Z,46.52
2022-09-15T02:17:20.789Z,46.43
2022-09-15T02:19:52.231Z,46.21
2022-09-15T02:22:25.138Z,46.32
2022-09-15T02:24:58.491Z,46.27
2022-09-15T02:27:30.005Z,46.57
2022-09-15T02:30:06.081Z,46.48
2022-09-15T02:32:38.693Z,45.96
2022-09-15T02:35:10.670Z,45.90
2022-09-15T02:37:39.689Z,46.43
2022-09-15T02:40:09.408Z,46.43
2022-09-15T02:42:39.259Z,45.92
2022-09-15T02:45:08.792Z,45.98
2022-09-15T02:47:38.512Z,46.23
2022-09-15T02:50:07.930Z,46.02
2022-09-15T02:52:36.064Z,46.75
2022-09-15T02:55:04.265Z,46.31
2022-09-15T02:57:32.339Z,46.60
2022-09-15T03:00:16.081Z,46.39
2022-09-15T03:02:48.333Z,46.20
2022-09-15T03:05:17.395Z,46.08
2022-09-15T03:07:45.837Z,46.02
2022-09-15T03:10:14.986Z,46.04
2022-09-15T03:12:44.644Z,45.92
2022-09-15T03:15:15.389Z,46.20
2022-09-15T03:17:46.486Z,45.86
2022-09-15T03:20:17.211Z,45.69
2022-09-15T03:22:45.476Z,45.38
2022-09-15T03:25:13.773Z,45.50
2022-09-15T03:27:42.473Z,45.39
2022-09-15T03:30:11.917Z,45.17
2022-09-15T03:32:40.124Z,45.24
2022-09-15T03:35:10.541Z,45.21
2022-09-15T03:37:38.636Z,45.31
2022-09-15T03:40:08.107Z,44.95
2022-09-15T03:42:36.224Z,45.32
2022-09-15T03:45:04.556Z,44.84
2022-09-15T03:47:33.383Z,44.60
2022-09-15T03:50:01.443Z,44.49
2022-09-15T03:52:33.141Z,44.36
2022-09-15T03:55:01.282Z,44.22
2022-09-15T03:57:29.371Z,44.18
2022-09-15T03:59:57.503Z,43.67
2022-09-15T04:02:25.659Z,43.76
2022-09-15T04:04:53.770Z,43.75
2022-09-15T04:07:22.017Z,43.72
2022-09-15T04:09:51.704Z,43.51
2022-09-15T04:12:19.783Z,43.46
2022-09-15T04:14:48.172Z,43.42
2022-09-15T04:17:16.440Z,43.39
2022-09-15T04:19:44.549Z,42.62
2022-09-15T04:22:17.530Z,42.68
2022-09-15T04:24:48.150Z,42.09
2022-09-15T04:27:18.466Z,42.22
2022-09-15T04:29:46.715Z,42.35
2022-09-15T04:32:14.943Z,42.14
2022-09-15T04:34:43.335Z,41.15
2022-09-15T04:37:11.563Z,41.45
2022-09-15T04:39:40.119Z,41.17
2022-09-15T04:42:08.330Z,41.38
2022-09-15T04:44:37.893Z,40.58
2022-09-15T04:47:07.297Z,40.79
2022-09-15T04:49:35.549Z,40.53
2022-09-15T04:52:06.670Z,40.60
2022-09-15T04:54:37.622Z,40.18
2022-09-15T04:57:06.162Z,40.22
2022-09-15T04:59:34.418Z,39.46
2022-09-15T05:02:04.171Z,40.24
2022-09-15T05:04:32.326Z,39.91
2022-09-15T05:07:00.519Z,39.06
2022-09-15T05:09:29.689Z,38.55
2022-09-15T05:11:57.923Z,38.52
2022-09-15T05:14:26.631Z,37.91
2022-09-15T05:16:54.719Z,37.44
2022-09-15T05:19:24.365Z,37.36
2022-09-15T05:21:52.535Z,36.37
2022-09-15T05:24:20.790Z,35.68
2022-09-15T05:26:49.002Z,34.02
2022-09-15T05:29:17.155Z,33.65
2022-09-15T05:31:45.564Z,32.47
2022-09-15T05:34:13.768Z,30.96
2022-09-15T05:36:44.307Z,33.41
2022-09-15T05:39:12.459Z,33.67
2022-09-15T05:41:41.330Z,32.08
2022-09-15T05:44:11.586Z,32.45
2022-09-15T05:46:39.856Z,30.67
2022-09-15T05:49:08.840Z,29.46
2022-09-15T05:51:37.773Z,32.17
2022-09-15T05:54:07.743Z,30.42
2022-09-15T05:56:35.843Z,30.26
2022-09-15T05:59:03.957Z,30.13
2022-09-15T06:01:32.366Z,28.37
2022-09-15T06:04:00.550Z,27.58
2022-09-15T06:06:28.730Z,27.26
2022-09-15T06:08:59.553Z,27.15
2022-09-15T06:11:31.600Z,26.79
2022-09-15T06:14:01.172Z,27.21
2022-09-15T06:16:32.060Z,27.35
2022-09-15T06:19:01.007Z,27.51
2022-09-15T06:21:31.304Z,26.59
2022-09-15T06:24:01.033Z,26.46
2022-09-15T06:26:30.857Z,26.23
2022-09-15T06:29:00.726Z,26.60
2022-09-15T06:31:31.599Z,27.49
2022-09-15T06:34:00.742Z,27.62
2022-09-15T06:36:30.668Z,27.36
2022-09-15T06:38:59.857Z,27.23
2022-09-15T06:41:33.047Z,27.62
2022-09-15T06:44:12.644Z,28.71
2022-09-15T06:46:40.959Z,27.73
2022-09-15T06:49:09.339Z,28.44
2022-09-15T06:51:37.468Z,29.52
2022-09-15T06:54:06.656Z,28.67
2022-09-15T06:56:38.120Z,28.87
2022-09-15T06:59:06.761Z,29.51
2022-09-15T07:01:36.288Z,30.23
2022-09-15T07:04:08.528Z,31.12
2022-09-15T07:06:38.582Z,31.44
2022-09-15T07:09:07.480Z,32.15
2022-09-15T07:11:35.788Z,32.44
2022-09-15T07:14:03.893Z,32.85
2022-09-15T07:16:32.315Z,33.18
2022-09-15T07:19:03.779Z,33.17
2022-09-15T07:21:31.917Z,33.32
2022-09-15T07:24:04.967Z,33.51
2022-09-15T07:26:35.226Z,33.59
2022-09-15T07:29:05.765Z,33.71
2022-09-15T07:31:35.470Z,33.60
2022-09-15T07:34:06.104Z,33.75
2022-09-15T07:36:34.458Z,33.81
2022-09-15T07:39:04.728Z,33.76
2022-09-15T07:41:37.019Z,33.62
2022-09-15T07:44:08.128Z,33.56
2022-09-15T07:46:36.509Z,33.11
2022-09-15T07:49:06.630Z,33.68
2022-09-15T07:51:34.907Z,33.31
2022-09-15T07:54:03.033Z,33.01
2022-09-15T07:56:31.446Z,32.67
2022-09-15T07:58:59.610Z,35.25
2022-09-15T08:01:27.777Z,35.73
2022-09-15T08:03:56.168Z,36.21
2022-09-15T08:06:27.886Z,36.32
2022-09-15T08:09:00.460Z,35.15
2022-09-15T08:11:29.531Z,33.56
2022-09-15T08:13:57.879Z,32.89
2022-09-15T08:16:26.342Z,32.45
2022-09-15T08:18:55.456Z,31.83
2022-09-15T08:21:25.972Z,31.56
2022-09-15T08:23:56.493Z,30.97
2022-09-15T08:26:25.668Z,30.94
2022-09-15T08:28:53.969Z,31.04
2022-09-15T08:31:24.264Z,30.99
2022-09-15T08:33:54.351Z,31.13
2022-09-15T08:36:22.989Z,31.53
2022-09-15T08:38:52.532Z,31.38
2022-09-15T08:41:25.828Z,31.31
2022-09-15T08:43:59.627Z,31.12
2022-09-15T08:46:33.856Z,31.27
2022-09-15T08:49:07.943Z,32.14
2022-09-15T08:51:42.582Z,30.68
2022-09-15T08:54:20.446Z,30.83
2022-09-15T08:56:50.357Z,30.36
2022-09-15T08:59:22.591Z,30.67
2022-09-15T09:02:05.743Z,30.72
2022-09-15T09:05:07.602Z,30.87
2022-09-15T09:07:57.186Z,30.94
2022-09-15T09:10:35.690Z,30.66
2022-09-15T09:13:19.722Z,31.09
2022-09-15T09:15:57.980Z,31.29
2022-09-15T09:18:52.547Z,30.79
2022-09-15T09:21:26.723Z,30.48
2022-09-15T09:24:00.896Z,31.00
2022-09-15T09:26:33.505Z,30.26
2022-09-15T09:29:03.474Z,29.56
2022-09-15T09:31:31.613Z,29.21
2022-09-15T09:34:11.479Z,29.13
2022-09-15T09:36:39.753Z,28.89
2022-09-15T09:39:12.632Z,29.32
2022-09-15T09:41:43.872Z,28.50
2022-09-15T09:44:15.322Z,28.52
2022-09-15T09:46:44.236Z,28.78
2022-09-15T09:49:18.965Z,28.33
2022-09-15T09:51:52.930Z,28.42
2022-09-15T09:54:25.143Z,28.23
2022-09-15T09:56:56.782Z,28.42
2022-09-15T09:59:40.076Z,28.23
2022-09-15T10:02:16.886Z,28.28
2022-09-15T10:04:46.401Z,27.76
2022-09-15T10:07:16.566Z,27.98
2022-09-15T10:09:54.755Z,27.81
2022-09-15T10:12:39.948Z,28.05
2022-09-15T10:15:21.801Z,27.78
2022-09-15T10:17:52.455Z,27.78
2022-09-15T10:20:28.474Z,27.92
2022-09-15T10:23:04.459Z,28.12
2022-09-15T10:25:58.711Z,28.20
2022-09-15T10:28:28.661Z,27.48
2022-09-15T10:31:05.666Z,27.36
2022-09-15T10:33:36.113Z,27.35
2022-09-15T10:36:13.822Z,27.17
2022-09-15T10:38:45.459Z,27.18
2022-09-15T10:41:23.200Z,27.27
2022-09-15T10:44:30.270Z,27.92
2022-09-15T10:47:15.003Z,27.21
2022-09-15T10:49:58.760Z,27.46
2022-09-15T10:52:36.916Z,26.89
2022-09-15T10:55:51.719Z,27.20
2022-09-15T10:58:49.879Z,27.03
2022-09-15T11:01:33.537Z,26.89
2022-09-15T11:04:19.946Z,26.62
2022-09-15T11:06:56.992Z,27.40
2022-09-15T11:09:29.214Z,26.87
2022-09-15T11:12:08.683Z,26.36
2022-09-15T11:14:51.758Z,26.51
2022-09-15T11:17:37.287Z,26.49
2022-09-15T11:20:27.665Z,26.61
2022-09-15T11:23:01.204Z,26.39
2022-09-15T11:25:32.671Z,26.39
2022-09-15T11:28:06.916Z,26.07
2022-09-15T11:30:41.657Z,26.69
2022-09-15T11:33:20.836Z,25.58
2022-09-15T11:35:54.922Z,25.72
2022-09-15T11:38:32.108Z,25.22
2022-09-15T11:41:12.894Z,24.82
2022-09-15T11:43:46.459Z,24.87
2022-09-15T11:46:22.977Z,25.00
2022-09-15T11:49:01.163Z,25.00
2022-09-15T11:51:34.972Z,25.11
2022-09-15T11:54:08.899Z,25.29
2022-09-15T11:56:43.730Z,25.14
2022-09-15T11:59:21.439Z,24.88
2022-09-15T12:02:01.934Z,24.54
2022-09-15T12:04:35.408Z,24.99
2022-09-15T12:07:13.857Z,25.13
2022-09-15T12:09:42.918Z,25.10
2022-09-15T12:12:15.693Z,24.97
2022-09-15T12:14:45.856Z,24.75
2022-09-15T12:17:19.930Z,24.28
2022-09-15T12:20:00.130Z,24.41
2022-09-15T12:22:34.081Z,24.31
2022-09-15T12:25:06.860Z,23.99
2022-09-15T12:27:35.042Z,24.42
2022-09-15T12:30:05.150Z,24.21
2022-09-15T12:32:35.234Z,24.58
2022-09-15T12:35:13.373Z,24.47
2022-09-15T12:37:45.325Z,24.48
2022-09-15T12:40:35.115Z,24.40
2022-09-15T12:43:04.660Z,24.48
2022-09-15T12:45:35.960Z,24.67
2022-09-15T12:48:08.397Z,24.12
2022-09-15T12:50:40.470Z,24.39
2022-09-15T12:53:21.031Z,24.29
2022-09-15T12:55:51.790Z,24.19
2022-09-15T12:58:27.374Z,24.47
2022-09-15T13:01:36.843Z,24.28
2022-09-15T13:04:27.053Z,24.26
2022-09-15T13:07:35.725Z,24.08
2022-09-15T13:10:35.992Z,24.63
2022-09-15T13:13:29.978Z,24.62
2022-09-15T13:16:03.506Z,24.82
2022-09-15T13:18:33.464Z,24.28
2022-09-15T13:21:08.815Z,24.84
2022-09-15T13:23:42.513Z,24.18
2022-09-15T13:26:17.033Z,24.55
2022-09-15T13:28:50.427Z,24.57
2022-09-15T13:31:34.490Z,24.55
2022-09-15T13:35:08.559Z,24.33
2022-09-15T13:38:08.070Z,24.69
2022-09-15T13:41:13.172Z,24.16
2022-09-15T13:44:01.087Z,24.37
2022-09-15T13:46:40.786Z,23.68
2022-09-15T13:49:45.084Z,23.52
2022-09-15T13:52:26.288Z,23.80
2022-09-15T13:55:19.610Z,24.05
2022-09-15T14:00:47.477Z,24.00
2022-09-15T14:03:20.763Z,24.07
2022-09-15T14:05:49.331Z,23.92
2022-09-15T14:08:21.291Z,23.75
2022-09-15T14:10:55.756Z,22.98
2022-09-15T14:13:27.314Z,22.94
2022-09-15T14:15:59.876Z,23.38
2022-09-15T14:18:31.562Z,23.06
2022-09-15T14:21:02.136Z,23.10
2022-09-15T14:23:31.229Z,23.00
2022-09-15T14:26:02.711Z,23.09
2022-09-15T14:28:33.342Z,23.42
2022-09-15T14:31:03.141Z,23.48
2022-09-15T14:33:38.181Z,23.68
2022-09-15T14:36:14.910Z,25.50
2022-09-15T14:38:43.074Z,31.60
2022-09-15T14:41:27.642Z,33.98
2022-09-15T14:43:55.815Z,42.17
2022-09-15T14:46:23.900Z,44.44
2022-09-15T14:48:52.050Z,48.46
2022-09-15T14:51:24.958Z,50.14
2022-09-15T14:53:56.838Z,52.91
2022-09-15T14:56:27.340Z,54.12
2022-09-15T14:58:59.441Z,55.40
2022-09-15T15:01:36.595Z,55.06
2022-09-15T15:04:10.405Z,56.45
2022-09-15T15:06:41.777Z,57.04
2022-09-15T15:09:17.935Z,58.11
2022-09-15T15:11:46.749Z,58.76
2022-09-15T15:14:16.616Z,58.85
2022-09-15T15:16:53.546Z,60.38
2022-09-15T15:19:36.131Z,61.10
2022-09-15T15:22:09.539Z,61.24
2022-09-15T15:24:42.304Z,61.03
2022-09-15T15:27:41.641Z,61.52
2022-09-15T15:30:48.458Z,61.58
2022-09-15T15:33:26.404Z,62.07
2022-09-15T15:36:06.276Z,62.86
2022-09-15T15:38:44.901Z,63.03
2022-09-15T15:41:21.992Z,61.81
2022-09-15T15:43:58.447Z,61.05
2022-09-15T15:46:47.355Z,55.44
2022-09-15T15:49:15.745Z,58.31
2022-09-15T15:51:44.775Z,58.28
2022-09-15T15:54:13.092Z,58.85
2022-09-15T15:56:41.178Z,58.41
2022-09-15T15:59:12.948Z,58.18
2022-09-15T16:01:41.661Z,57.06
2022-09-15T16:04:13.390Z,56.35
2022-09-15T16:06:42.359Z,56.42
2022-09-15T16:09:11.143Z,56.21
2022-09-15T16:11:39.237Z,53.62
2022-09-15T16:14:07.368Z,53.54
2022-09-15T16:16:35.931Z,53.50
2022-09-15T16:19:04.177Z,52.28
2022-09-15T16:21:37.572Z,52.52
2022-09-15T16:24:06.375Z,53.00
2022-09-15T16:26:35.934Z,53.63
2022-09-15T16:29:04.839Z,52.29
2022-09-15T16:31:34.485Z,52.45
2022-09-15T16:34:02.928Z,52.73
2022-09-15T16:36:34.735Z,53.27
2022-09-15T16:39:02.926Z,53.13
2022-09-15T16:41:32.333Z,53.16
2022-09-15T16:44:02.690Z,52.58
2022-09-15T16:46:31.626Z,52.13
2022-09-15T16:48:59.967Z,51.29
2022-09-15T16:51:31.427Z,49.73
2022-09-15T16:54:01.405Z,48.81
2022-09-15T16:56:29.743Z,48.91
2022-09-15T16:59:00.567Z,47.71
2022-09-15T17:01:29.216Z,47.58
2022-09-15T17:03:57.938Z,46.90
2022-09-15T17:06:26.218Z,47.86
2022-09-15T17:08:55.686Z,49.29
2022-09-15T17:11:26.350Z,47.38
2022-09-15T17:13:54.575Z,47.85
2022-09-15T17:16:22.909Z,45.35
2022-09-15T17:18:51.210Z,44.83
2022-09-15T17:21:20.665Z,44.40
2022-09-15T17:23:50.586Z,44.56
2022-09-15T17:26:20.983Z,44.69
2022-09-15T17:28:50.585Z,46.27
2022-09-15T17:31:21.063Z,45.22
2022-09-15T17:33:50.445Z,43.56
2022-09-15T17:36:19.381Z,43.93
2022-09-15T17:38:49.032Z,44.14
2022-09-15T17:41:19.779Z,42.90
2022-09-15T17:43:48.454Z,43.19
2022-09-15T17:46:18.282Z,42.91
2022-09-15T17:48:46.419Z,43.32
2022-09-15T17:51:17.804Z,43.95
2022-09-15T17:53:47.039Z,43.05
2022-09-15T17:56:15.620Z,41.68
2022-09-15T17:58:43.889Z,41.24
2022-09-15T18:01:14.029Z,42.04
2022-09-15T18:03:44.936Z,43.41
2022-09-15T18:06:13.941Z,42.63
2022-09-15T18:08:42.403Z,43.71
2022-09-15T18:11:14.550Z,44.22
2022-09-15T18:13:43.190Z,44.48
2022-09-15T18:16:14.559Z,44.86
2022-09-15T18:18:47.528Z,44.99
2022-09-15T18:21:25.868Z,45.69
2022-09-15T18:23:54.932Z,45.73
2022-09-15T18:26:26.397Z,45.83
2022-09-15T18:28:56.017Z,46.56
2022-09-15T18:31:24.203Z,47.19
2022-09-15T18:33:53.854Z,46.81
2022-09-15T18:36:22.021Z,45.97
2022-09-15T18:38:50.470Z,46.01
2022-09-15T18:41:18.637Z,45.52
2022-09-15T18:43:49.248Z,45.87
2022-09-15T18:46:18.509Z,46.01
2022-09-15T18:48:46.669Z,46.00
2022-09-15T18:51:23.686Z,46.02
2022-09-15T18:53:57.411Z,45.91
2022-09-15T18:56:25.670Z,45.71
2022-09-15T18:58:54.527Z,43.59
2022-09-15T19:01:23.247Z,43.66
2022-09-15T19:03:51.626Z,42.99
2022-09-15T19:06:21.277Z,42.46
2022-09-15T19:08:49.605Z,40.95
2022-09-15T19:11:17.840Z,40.46
2022-09-15T19:13:46.265Z,39.89
2022-09-15T19:16:14.545Z,39.28
2022-09-15T19:18:44.933Z,38.88
2022-09-15T19:21:13.507Z,38.59
2022-09-15T19:23:43.300Z,38.66
2022-09-15T19:26:13.988Z,38.43
2022-09-15T19:28:42.480Z,38.63
2022-09-15T19:31:10.892Z,38.70
2022-09-15T19:33:39.399Z,38.64
2022-09-15T19:36:28.409Z,38.96
2022-09-15T19:38:59.155Z,38.90
2022-09-15T19:41:28.094Z,38.85
2022-09-15T19:43:56.262Z,38.41
2022-09-15T19:46:26.592Z,38.26
2022-09-15T19:48:55.489Z,38.27
2022-09-15T19:51:23.861Z,38.10
2022-09-15T19:53:55.160Z,37.71
2022-09-15T19:56:27.232Z,37.62
2022-09-15T19:58:56.378Z,37.62
2022-09-15T20:01:26.071Z,37.72
2022-09-15T20:03:56.026Z,37.64
2022-09-15T20:06:27.750Z,38.47
2022-09-15T20:09:00.078Z,38.30
2022-09-15T20:11:31.365Z,37.73
2022-09-15T20:13:59.731Z,37.71
2022-09-15T20:16:28.221Z,37.52
2022-09-15T20:18:56.423Z,38.03
2022-09-15T20:21:48.573Z,38.56
2022-09-15T20:24:14.851Z,40.00
2022-09-15T20:26:44.555Z,39.11
2022-09-15T20:29:13.190Z,38.43
2022-09-15T20:31:41.745Z,38.71
2022-09-15T20:34:10.126Z,39.73
2022-09-15T20:36:39.169Z,40.31
2022-09-15T20:39:10.647Z,40.61
2022-09-15T20:41:39.578Z,41.45
2022-09-15T20:44:10.464Z,40.96
2022-09-15T20:46:38.703Z,40.85
2022-09-15T20:49:07.553Z,40.94
2022-09-15T20:51:36.137Z,41.25
2022-09-15T20:54:05.010Z,40.68
2022-09-15T20:56:35.482Z,40.94
2022-09-15T20:59:06.099Z,41.43
2022-09-15T21:01:38.126Z,42.34
2022-09-15T21:04:06.928Z,42.25
2022-09-15T21:06:38.583Z,43.07
2022-09-15T21:09:08.043Z,42.95
2022-09-15T21:11:36.917Z,42.68
2022-09-15T21:14:05.730Z,41.79
2022-09-15T21:16:35.314Z,41.50
2022-09-15T21:19:03.520Z,40.83
2022-09-15T21:21:34.168Z,40.72
2022-09-15T21:24:04.365Z,41.14
2022-09-15T21:26:35.675Z,41.62
2022-09-15T21:29:04.322Z,42.06
2022-09-15T21:31:34.124Z,42.82
2022-09-15T21:34:03.747Z,43.18
2022-09-15T21:36:33.084Z,43.24
2022-09-15T21:39:02.938Z,43.32
2022-09-15T21:41:31.345Z,43.34
2022-09-15T21:44:00.968Z,43.86
2022-09-15T21:46:30.993Z,43.51
2022-09-15T21:49:00.574Z,43.37
2022-09-15T21:51:31.091Z,43.96
2022-09-15T21:54:00.810Z,43.81
2022-09-15T21:56:30.275Z,43.46
2022-09-15T21:58:58.915Z,43.75
2022-09-15T22:01:29.269Z,44.14
2022-09-15T22:03:58.769Z,43.87
2022-09-15T22:06:31.953Z,43.79
2022-09-15T22:09:01.192Z,44.01
2022-09-15T22:11:29.456Z,43.74
2022-09-15T22:13:57.621Z,42.94
2022-09-15T22:16:26.994Z,42.39
2022-09-15T22:18:55.524Z,42.55
2022-09-15T22:21:25.612Z,43.25
2022-09-15T22:23:57.470Z,43.23
2022-09-15T22:26:28.233Z,42.94
2022-09-15T22:28:57.191Z,42.54
2022-09-15T22:31:26.962Z,42.16
2022-09-15T22:33:55.951Z,42.19
2022-09-15T22:36:29.365Z,42.13
2022-09-15T22:39:04.378Z,42.42
2022-09-15T22:41:34.190Z,43.11
2022-09-15T22:44:02.758Z,43.27
2022-09-15T22:46:30.903Z,43.47
2022-09-15T22:48:59.296Z,43.63
2022-09-15T22:51:27.715Z,43.65
2022-09-15T22:53:57.371Z,43.96
2022-09-15T22:56:27.842Z,43.99
2022-09-15T22:58:57.464Z,44.31
2022-09-15T23:01:28.073Z,44.00
2022-09-15T23:03:58.841Z,44.40
2022-09-15T23:06:29.621Z,44.73
2022-09-15T23:08:59.775Z,44.64
2022-09-15T23:11:32.371Z,44.90
2022-09-15T23:14:01.649Z,45.41
2022-09-15T23:16:31.704Z,45.37
2022-09-15T23:19:00.364Z,45.40
2022-09-15T23:21:29.123Z,45.33
2022-09-15T23:23:57.504Z,45.35
2022-09-15T23:26:26.793Z,45.60
2022-09-15T23:28:56.323Z,45.78
2022-09-15T23:31:24.564Z,46.04
2022-09-15T23:33:52.948Z,46.38
2022-09-15T23:36:21.268Z,46.67
2022-09-15T23:38:50.491Z,46.80
2022-09-15T23:41:19.520Z,47.36
2022-09-15T23:43:48.164Z,47.38
2022-09-15T23:46:18.196Z,46.98
2022-09-15T23:48:46.560Z,46.88
2022-09-15T23:51:15.049Z,47.11
2022-09-15T23:53:43.616Z,47.34
2022-09-15T23:56:11.797Z,47.66
2022-09-15T23:58:39.976Z,47.38
